sensor_id;sensor_type;location;lat;lon;timestamp;pressure;altitude;pressure_sealevel;temperature;humidity
35952;BME280;22035;51.406;16.194;2023-01-25T00:01:28;102123.46;;;25.42;19.22
35952;BME280;22035;51.406;16.194;2023-01-25T00:03:54;102120.69;;;25.45;19.18
35952;BME280;22035;51.406;16.194;2023-01-25T00:06:20;102116.49;;;25.41;19.23
35952;BME280;22035;51.406;16.194;2023-01-25T00:08:48;102114.18;;;25.40;19.23
35952;BME280;22035;51.406;16.194;2023-01-25T00:11:14;102107.69;;;25.45;19.19
35952;BME280;22035;51.406;16.194;2023-01-25T00:13:39;102108.59;;;25.45;19.19
35952;BME280;22035;51.406;16.194;2023-01-25T00:16:05;102106.56;;;25.39;19.23
35952;BME280;22035;51.406;16.194;2023-01-25T00:18:31;102104.58;;;25.45;19.19
35952;BME280;22035;51.406;16.194;2023-01-25T00:20:57;102099.79;;;25.43;19.21
35952;BME280;22035;51.406;16.194;2023-01-25T00:23:23;102095.76;;;25.45;19.19
35952;BME280;22035;51.406;16.194;2023-01-25T00:25:55;102092.20;;;25.43;19.20
35952;BME280;22035;51.406;16.194;2023-01-25T00:28:21;102088.48;;;25.43;19.21
35952;BME280;22035;51.406;16.194;2023-01-25T00:30:47;102084.76;;;25.38;19.25
35952;BME280;22035;51.406;16.194;2023-01-25T00:33:37;102075.19;;;25.42;19.23
35952;BME280;22035;51.406;16.194;2023-01-25T00:36:26;102071.79;;;25.43;19.20
35952;BME280;22035;51.406;16.194;2023-01-25T00:38:53;102067.74;;;25.41;19.22
35952;BME280;22035;51.406;16.194;2023-01-25T00:41:18;102063.73;;;25.42;19.22
35952;BME280;22035;51.406;16.194;2023-01-25T00:43:44;102058.47;;;25.43;19.21
35952;BME280;22035;51.406;16.194;2023-01-25T00:46:14;102057.25;;;25.41;19.23
35952;BME280;22035;51.406;16.194;2023-01-25T00:48:39;102055.75;;;25.44;19.19
35952;BME280;22035;51.406;16.194;2023-01-25T00:51:05;102054.66;;;25.41;19.22
35952;BME280;22035;51.406;16.194;2023-01-25T00:53:31;102054.02;;;25.45;19.18
35952;BME280;22035;51.406;16.194;2023-01-25T00:55:56;102054.20;;;25.41;19.23
35952;BME280;22035;51.406;16.194;2023-01-25T00:58:22;102052.92;;;25.47;19.17
35952;BME280;22035;51.406;16.194;2023-01-25T01:00:48;102048.71;;;25.47;19.16
35952;BME280;22035;51.406;16.194;2023-01-25T01:03:14;102043.93;;;25.42;19.20
35952;BME280;22035;51.406;16.194;2023-01-25T01:05:40;102038.71;;;25.42;19.21
35952;BME280;22035;51.406;16.194;2023-01-25T01:08:06;102034.95;;;25.42;19.22
35952;BME280;22035;51.406;16.194;2023-01-25T01:10:32;102030.02;;;25.44;19.19
35952;BME280;22035;51.406;16.194;2023-01-25T01:12:57;102023.13;;;25.45;19.19
35952;BME280;22035;51.406;16.194;2023-01-25T01:15:23;102020.54;;;25.47;19.16
35952;BME280;22035;51.406;16.194;2023-01-25T01:17:49;102019.72;;;25.47;19.15
35952;BME280;22035;51.406;16.194;2023-01-25T01:20:15;102017.57;;;25.44;19.20
35952;BME280;22035;51.406;16.194;2023-01-25T01:22:40;102013.88;;;25.46;19.16
35952;BME280;22035;51.406;16.194;2023-01-25T01:25:07;102010.87;;;25.46;19.16
35952;BME280;22035;51.406;16.194;2023-01-25T01:27:33;102009.68;;;25.42;19.21
35952;BME280;22035;51.406;16.194;2023-01-25T01:29:59;102008.93;;;25.41;19.22
35952;BME280;22035;51.406;16.194;2023-01-25T01:32:25;102007.02;;;25.47;19.16
35952;BME280;22035;51.406;16.194;2023-01-25T01:34:50;102003.89;;;25.45;19.17
35952;BME280;22035;51.406;16.194;2023-01-25T01:37:16;102000.84;;;25.42;19.20
35952;BME280;22035;51.406;16.194;2023-01-25T01:39:42;102001.38;;;25.44;19.20
35952;BME280;22035;51.406;16.194;2023-01-25T01:42:07;102000.43;;;25.41;19.22
35952;BME280;22035;51.406;16.194;2023-01-25T01:44:50;102000.88;;;25.45;19.19
35952;BME280;22035;51.406;16.194;2023-01-25T01:47:20;101997.90;;;25.46;19.17
35952;BME280;22035;51.406;16.194;2023-01-25T01:49:51;101993.72;;;25.44;19.19
35952;BME280;22035;51.406;16.194;2023-01-25T01:52:20;101992.49;;;25.44;19.19
35952;BME280;22035;51.406;16.194;2023-01-25T01:54:52;101990.75;;;25.41;19.22
35952;BME280;22035;51.406;16.194;2023-01-25T01:57:21;101993.21;;;25.41;19.22
35952;BME280;22035;51.406;16.194;2023-01-25T01:59:52;101994.18;;;25.45;19.18
35952;BME280;22035;51.406;16.194;2023-01-25T02:02:20;101992.26;;;25.44;19.19
35952;BME280;22035;51.406;16.194;2023-01-25T02:04:48;101986.56;;;25.43;19.20
35952;BME280;22035;51.406;16.194;2023-01-25T02:07:16;101985.62;;;25.41;19.22
35952;BME280;22035;51.406;16.194;2023-01-25T02:09:44;101984.65;;;25.46;19.18
35952;BME280;22035;51.406;16.194;2023-01-25T02:12:10;101981.03;;;25.42;19.21
35952;BME280;22035;51.406;16.194;2023-01-25T02:14:43;101982.40;;;25.42;19.20
35952;BME280;22035;51.406;16.194;2023-01-25T02:17:10;101987.33;;;25.44;19.19
35952;BME280;22035;51.406;16.194;2023-01-25T02:19:42;101988.40;;;25.43;19.19
35952;BME280;22035;51.406;16.194;2023-01-25T02:22:13;101982.45;;;25.38;19.24
35952;BME280;22035;51.406;16.194;2023-01-25T02:24:43;101986.65;;;25.46;19.15
35952;BME280;22035;51.406;16.194;2023-01-25T02:27:11;101984.90;;;25.45;19.19
35952;BME280;22035;51.406;16.194;2023-01-25T02:29:37;101986.22;;;25.44;19.19
35952;BME280;22035;51.406;16.194;2023-01-25T02:32:05;101986.66;;;25.45;19.18
35952;BME280;22035;51.406;16.194;2023-01-25T02:34:31;101988.08;;;25.42;19.21
35952;BME280;22035;51.406;16.194;2023-01-25T02:36:57;101990.57;;;25.43;19.22
35952;BME280;22035;51.406;16.194;2023-01-25T02:39:23;101991.52;;;25.45;19.19
35952;BME280;22035;51.406;16.194;2023-01-25T02:41:49;101992.84;;;25.42;19.21
35952;BME280;22035;51.406;16.194;2023-01-25T02:44:16;101994.80;;;25.48;19.15
35952;BME280;22035;51.406;16.194;2023-01-25T02:46:44;101992.15;;;25.46;19.17
35952;BME280;22035;51.406;16.194;2023-01-25T02:49:11;101991.56;;;25.46;19.20
35952;BME280;22035;51.406;16.194;2023-01-25T02:51:38;101986.73;;;25.42;19.22
35952;BME280;22035;51.406;16.194;2023-01-25T02:54:07;101980.96;;;25.44;19.19
35952;BME280;22035;51.406;16.194;2023-01-25T02:56:33;101977.78;;;25.43;19.20
35952;BME280;22035;51.406;16.194;2023-01-25T02:58:59;101977.07;;;25.47;19.16
35952;BME280;22035;51.406;16.194;2023-01-25T03:01:25;101977.55;;;25.46;19.18
35952;BME280;22035;51.406;16.194;2023-01-25T03:03:51;101975.34;;;25.45;19.18
35952;BME280;22035;51.406;16.194;2023-01-25T03:06:16;101969.12;;;25.43;19.19
35952;BME280;22035;51.406;16.194;2023-01-25T03:08:42;101968.53;;;25.41;19.21
35952;BME280;22035;51.406;16.194;2023-01-25T03:11:08;101970.93;;;25.46;19.17
35952;BME280;22035;51.406;16.194;2023-01-25T03:13:34;101968.71;;;25.42;19.21
35952;BME280;22035;51.406;16.194;2023-01-25T03:16:02;101964.16;;;25.44;19.19
35952;BME280;22035;51.406;16.194;2023-01-25T03:18:29;101957.42;;;25.45;19.17
35952;BME280;22035;51.406;16.194;2023-01-25T03:20:55;101958.49;;;25.43;19.19
35952;BME280;22035;51.406;16.194;2023-01-25T03:23:21;101960.69;;;25.44;19.19
35952;BME280;22035;51.406;16.194;2023-01-25T03:25:47;101959.32;;;25.48;19.15
35952;BME280;22035;51.406;16.194;2023-01-25T03:28:12;101961.35;;;25.49;19.14
35952;BME280;22035;51.406;16.194;2023-01-25T03:30:38;101962.86;;;25.51;19.11
35952;BME280;22035;51.406;16.194;2023-01-25T03:33:04;101959.80;;;25.43;19.19
35952;BME280;22035;51.406;16.194;2023-01-25T03:35:30;101957.35;;;25.47;19.15
35952;BME280;22035;51.406;16.194;2023-01-25T03:37:55;101955.98;;;25.48;19.14
35952;BME280;22035;51.406;16.194;2023-01-25T03:40:21;101951.97;;;25.44;19.18
35952;BME280;22035;51.406;16.194;2023-01-25T03:42:47;101948.37;;;25.47;19.15
35952;BME280;22035;51.406;16.194;2023-01-25T03:45:12;101944.38;;;25.42;19.20
35952;BME280;22035;51.406;16.194;2023-01-25T03:47:38;101940.29;;;25.45;19.17
35952;BME280;22035;51.406;16.194;2023-01-25T03:50:05;101939.54;;;25.44;19.18
35952;BME280;22035;51.406;16.194;2023-01-25T03:52:31;101935.54;;;25.41;19.21
35952;BME280;22035;51.406;16.194;2023-01-25T03:54:56;101933.31;;;25.46;19.16
35952;BME280;22035;51.406;16.194;2023-01-25T03:57:22;101934.20;;;25.46;19.17
35952;BME280;22035;51.406;16.194;2023-01-25T03:59:48;101934.52;;;25.48;19.14
35952;BME280;22035;51.406;16.194;2023-01-25T04:02:14;101930.26;;;25.49;19.14
35952;BME280;22035;51.406;16.194;2023-01-25T04:04:39;101924.10;;;25.48;19.14
35952;BME280;22035;51.406;16.194;2023-01-25T04:07:05;101919.38;;;25.42;19.20
35952;BME280;22035;51.406;16.194;2023-01-25T04:09:31;101918.64;;;25.49;19.14
35952;BME280;22035;51.406;16.194;2023-01-25T04:11:56;101918.47;;;25.47;19.16
35952;BME280;22035;51.406;16.194;2023-01-25T04:14:22;101916.62;;;25.42;19.20
35952;BME280;22035;51.406;16.194;2023-01-25T04:16:48;101912.39;;;25.40;19.23
35952;BME280;22035;51.406;16.194;2023-01-25T04:19:13;101911.92;;;25.46;19.17
35952;BME280;22035;51.406;16.194;2023-01-25T04:21:39;101910.02;;;25.45;19.18
35952;BME280;22035;51.406;16.194;2023-01-25T04:24:05;101911.09;;;25.49;19.17
35952;BME280;22035;51.406;16.194;2023-01-25T04:26:31;101912.04;;;25.48;19.15
35952;BME280;22035;51.406;16.194;2023-01-25T04:28:57;101908.67;;;25.46;19.16
35952;BME280;22035;51.406;16.194;2023-01-25T04:31:22;101903.03;;;25.47;19.14
35952;BME280;22035;51.406;16.194;2023-01-25T04:33:48;101900.58;;;25.48;19.14
35952;BME280;22035;51.406;16.194;2023-01-25T04:36:14;101899.46;;;25.43;19.20
35952;BME280;22035;51.406;16.194;2023-01-25T04:38:39;101898.36;;;25.46;19.16
35952;BME280;22035;51.406;16.194;2023-01-25T04:41:05;101896.11;;;25.45;19.17
35952;BME280;22035;51.406;16.194;2023-01-25T04:43:31;101896.08;;;25.45;19.17
35952;BME280;22035;51.406;16.194;2023-01-25T04:45:57;101894.19;;;25.49;19.12
35952;BME280;22035;51.406;16.194;2023-01-25T04:48:25;101890.14;;;25.49;19.12
35952;BME280;22035;51.406;16.194;2023-01-25T04:50:50;101888.09;;;25.49;19.13
35952;BME280;22035;51.406;16.194;2023-01-25T04:53:16;101885.43;;;25.46;19.16
35952;BME280;22035;51.406;16.194;2023-01-25T04:55:44;101885.91;;;25.46;19.16
35952;BME280;22035;51.406;16.194;2023-01-25T04:58:09;101885.62;;;25.45;19.17
35952;BME280;22035;51.406;16.194;2023-01-25T05:00:35;101888.02;;;25.48;19.14
35952;BME280;22035;51.406;16.194;2023-01-25T05:03:02;101888.44;;;25.49;19.14
35952;BME280;22035;51.406;16.194;2023-01-25T05:05:28;101884.52;;;25.44;19.18
35952;BME280;22035;51.406;16.194;2023-01-25T05:07:53;101878.63;;;25.44;19.18
35952;BME280;22035;51.406;16.194;2023-01-25T05:10:19;101877.95;;;25.47;19.15
35952;BME280;22035;51.406;16.194;2023-01-25T05:12:45;101877.36;;;25.49;19.14
35952;BME280;22035;51.406;16.194;2023-01-25T05:15:11;101874.52;;;25.47;19.14
35952;BME280;22035;51.406;16.194;2023-01-25T05:17:37;101875.79;;;25.45;19.18
35952;BME280;22035;51.406;16.194;2023-01-25T05:20:03;101874.40;;;25.47;19.16
35952;BME280;22035;51.406;16.194;2023-01-25T05:22:29;101874.08;;;25.45;19.17
35952;BME280;22035;51.406;16.194;2023-01-25T05:24:55;101869.95;;;25.46;19.16
35952;BME280;22035;51.406;16.194;2023-01-25T05:27:21;101866.87;;;25.46;19.16
35952;BME280;22035;51.406;16.194;2023-01-25T05:29:47;101869.81;;;25.48;19.15
35952;BME280;22035;51.406;16.194;2023-01-25T05:32:14;101867.70;;;25.47;19.14
35952;BME280;22035;51.406;16.194;2023-01-25T05:34:41;101869.44;;;25.48;19.13
35952;BME280;22035;51.406;16.194;2023-01-25T05:37:09;101867.76;;;25.49;19.13
35952;BME280;22035;51.406;16.194;2023-01-25T05:39:35;101863.28;;;25.46;19.16
35952;BME280;22035;51.406;16.194;2023-01-25T05:42:00;101856.81;;;25.46;19.15
35952;BME280;22035;51.406;16.194;2023-01-25T05:44:26;101855.90;;;25.42;19.19
35952;BME280;22035;51.406;16.194;2023-01-25T05:46:52;101851.25;;;25.50;19.12
35952;BME280;22035;51.406;16.194;2023-01-25T05:49:18;101848.70;;;25.50;19.12
35952;BME280;22035;51.406;16.194;2023-01-25T05:51:45;101846.96;;;25.45;19.17
35952;BME280;22035;51.406;16.194;2023-01-25T05:54:13;101845.97;;;25.47;19.15
35952;BME280;22035;51.406;16.194;2023-01-25T05:56:39;101845.85;;;25.43;19.17
35952;BME280;22035;51.406;16.194;2023-01-25T05:59:04;101840.47;;;25.46;19.16
35952;BME280;22035;51.406;16.194;2023-01-25T06:01:30;101835.12;;;25.46;19.18
35952;BME280;22035;51.406;16.194;2023-01-25T06:03:56;101832.91;;;25.47;19.14
35952;BME280;22035;51.406;16.194;2023-01-25T06:06:22;101835.22;;;25.49;19.11
35952;BME280;22035;51.406;16.194;2023-01-25T06:08:49;101836.03;;;25.52;19.10
35952;BME280;22035;51.406;16.194;2023-01-25T06:11:16;101838.86;;;25.49;19.12
35952;BME280;22035;51.406;16.194;2023-01-25T06:13:43;101835.06;;;25.50;19.11
35952;BME280;22035;51.406;16.194;2023-01-25T06:16:09;101831.29;;;25.44;19.18
35952;BME280;22035;51.406;16.194;2023-01-25T06:18:35;101830.23;;;25.47;19.14
35952;BME280;22035;51.406;16.194;2023-01-25T06:21:03;101831.37;;;25.46;19.17
35952;BME280;22035;51.406;16.194;2023-01-25T06:23:29;101828.50;;;25.49;19.12
35952;BME280;22035;51.406;16.194;2023-01-25T06:25:57;101826.19;;;25.45;19.17
35952;BME280;22035;51.406;16.194;2023-01-25T06:28:22;101826.09;;;25.48;19.14
35952;BME280;22035;51.406;16.194;2023-01-25T06:30:49;101824.73;;;25.50;19.11
35952;BME280;22035;51.406;16.194;2023-01-25T06:33:14;101829.01;;;25.50;19.11
35952;BME280;22035;51.406;16.194;2023-01-25T06:35:40;101828.83;;;25.49;19.12
35952;BME280;22035;51.406;16.194;2023-01-25T06:38:06;101826.74;;;25.50;19.12
35952;BME280;22035;51.406;16.194;2023-01-25T06:40:31;101824.34;;;25.48;19.14
35952;BME280;22035;51.406;16.194;2023-01-25T06:43:05;101824.58;;;25.48;19.15
35952;BME280;22035;51.406;16.194;2023-01-25T06:45:30;101823.59;;;25.45;19.17
35952;BME280;22035;51.406;16.194;2023-01-25T06:47:56;101820.69;;;25.49;19.13
35952;BME280;22035;51.406;16.194;2023-01-25T06:50:22;101823.56;;;25.45;19.17
35952;BME280;22035;51.406;16.194;2023-01-25T06:52:51;101822.95;;;25.49;19.12
35952;BME280;22035;51.406;16.194;2023-01-25T06:55:17;101821.27;;;25.46;19.17
35952;BME280;22035;51.406;16.194;2023-01-25T06:57:43;101819.44;;;25.50;19.11
35952;BME280;22035;51.406;16.194;2023-01-25T07:00:10;101815.24;;;25.44;19.18
35952;BME280;22035;51.406;16.194;2023-01-25T07:02:36;101811.08;;;25.49;19.12
35952;BME280;22035;51.406;16.194;2023-01-25T07:05:01;101809.89;;;25.48;19.14
35952;BME280;22035;51.406;16.194;2023-01-25T07:07:27;101808.67;;;25.48;19.13
35952;BME280;22035;51.406;16.194;2023-01-25T07:09:53;101801.30;;;25.49;19.13
35952;BME280;22035;51.406;16.194;2023-01-25T07:12:18;101801.06;;;25.45;19.17
35952;BME280;22035;51.406;16.194;2023-01-25T07:14:44;101798.95;;;25.51;19.10
35952;BME280;22035;51.406;16.194;2023-01-25T07:17:10;101799.69;;;25.50;19.12
35952;BME280;22035;51.406;16.194;2023-01-25T07:19:36;101799.69;;;25.50;19.11
35952;BME280;22035;51.406;16.194;2023-01-25T07:22:01;101800.07;;;25.50;19.12
35952;BME280;22035;51.406;16.194;2023-01-25T07:24:27;101799.21;;;25.52;19.11
35952;BME280;22035;51.406;16.194;2023-01-25T07:26:53;101797.01;;;25.47;19.14
35952;BME280;22035;51.406;16.194;2023-01-25T07:29:19;101790.23;;;25.48;19.14
35952;BME280;22035;51.406;16.194;2023-01-25T07:31:45;101788.12;;;25.47;19.15
35952;BME280;22035;51.406;16.194;2023-01-25T07:34:11;101785.38;;;25.47;19.15
35952;BME280;22035;51.406;16.194;2023-01-25T07:36:37;101785.06;;;25.49;19.14
35952;BME280;22035;51.406;16.194;2023-01-25T07:39:04;101783.82;;;25.48;19.16
35952;BME280;22035;51.406;16.194;2023-01-25T07:41:30;101783.57;;;25.49;19.14
35952;BME280;22035;51.406;16.194;2023-01-25T07:43:55;101782.44;;;25.47;19.16
35952;BME280;22035;51.406;16.194;2023-01-25T07:46:21;101780.12;;;25.45;19.19
35952;BME280;22035;51.406;16.194;2023-01-25T07:48:48;101782.87;;;25.48;19.16
35952;BME280;22035;51.406;16.194;2023-01-25T07:51:15;101782.16;;;25.51;19.12
35952;BME280;22035;51.406;16.194;2023-01-25T07:53:42;101779.27;;;25.51;19.12
35952;BME280;22035;51.406;16.194;2023-01-25T07:56:09;101776.58;;;25.48;19.16
35952;BME280;22035;51.406;16.194;2023-01-25T07:58:35;101774.16;;;25.50;19.14
35952;BME280;22035;51.406;16.194;2023-01-25T08:01:09;101773.51;;;25.50;19.14
35952;BME280;22035;51.406;16.194;2023-01-25T08:03:36;101774.25;;;25.53;19.11
35952;BME280;22035;51.406;16.194;2023-01-25T08:06:02;101770.10;;;25.49;19.14
35952;BME280;22035;51.406;16.194;2023-01-25T08:08:28;101766.35;;;25.50;19.14
35952;BME280;22035;51.406;16.194;2023-01-25T08:10:53;101764.96;;;25.50;19.20
35952;BME280;22035;51.406;16.194;2023-01-25T08:13:19;101765.63;;;25.51;19.13
35952;BME280;22035;51.406;16.194;2023-01-25T08:15:52;101765.39;;;25.49;19.16
35952;BME280;22035;51.406;16.194;2023-01-25T08:18:17;101763.47;;;25.49;19.16
35952;BME280;22035;51.406;16.194;2023-01-25T08:20:43;101758.34;;;25.48;19.18
35952;BME280;22035;51.406;16.194;2023-01-25T08:23:09;101759.59;;;25.47;19.19
35952;BME280;22035;51.406;16.194;2023-01-25T08:25:35;101753.03;;;25.49;19.17
35952;BME280;22035;51.406;16.194;2023-01-25T08:28:00;101753.49;;;25.50;19.16
35952;BME280;22035;51.406;16.194;2023-01-25T08:30:26;101752.33;;;25.50;19.16
35952;BME280;22035;51.406;16.194;2023-01-25T08:32:52;101752.06;;;25.50;19.16
35952;BME280;22035;51.406;16.194;2023-01-25T08:35:18;101755.00;;;25.47;19.19
35952;BME280;22035;51.406;16.194;2023-01-25T08:37:43;101755.87;;;25.49;19.19
35952;BME280;22035;51.406;16.194;2023-01-25T08:40:10;101745.93;;;25.52;19.16
35952;BME280;22035;51.406;16.194;2023-01-25T08:42:36;101742.24;;;25.52;19.14
35952;BME280;22035;51.406;16.194;2023-01-25T08:45:02;101738.16;;;25.49;19.19
35952;BME280;22035;51.406;16.194;2023-01-25T08:47:28;101738.03;;;25.49;19.19
35952;BME280;22035;51.406;16.194;2023-01-25T08:49:54;101735.49;;;25.47;19.20
35952;BME280;22035;51.406;16.194;2023-01-25T08:52:20;101734.47;;;25.54;19.14
35952;BME280;22035;51.406;16.194;2023-01-25T08:54:45;101730.58;;;25.53;19.16
35952;BME280;22035;51.406;16.194;2023-01-25T08:57:11;101729.63;;;25.48;19.21
35952;BME280;22035;51.406;16.194;2023-01-25T08:59:37;101732.26;;;25.51;19.18
35952;BME280;22035;51.406;16.194;2023-01-25T09:02:02;101728.42;;;25.51;19.17
35952;BME280;22035;51.406;16.194;2023-01-25T09:04:28;101725.61;;;25.48;19.20
35952;BME280;22035;51.406;16.194;2023-01-25T09:06:54;101727.71;;;25.50;19.19
35952;BME280;22035;51.406;16.194;2023-01-25T09:09:20;101727.68;;;25.51;19.19
35952;BME280;22035;51.406;16.194;2023-01-25T09:11:45;101723.30;;;25.50;19.20
35952;BME280;22035;51.406;16.194;2023-01-25T09:14:11;101721.35;;;25.55;19.16
35952;BME280;22035;51.406;16.194;2023-01-25T09:16:37;101719.07;;;25.54;19.16
35952;BME280;22035;51.406;16.194;2023-01-25T09:19:03;101715.03;;;25.53;19.18
35952;BME280;22035;51.406;16.194;2023-01-25T09:21:30;101716.40;;;25.53;19.16
35952;BME280;22035;51.406;16.194;2023-01-25T09:23:57;101712.66;;;25.53;19.17
35952;BME280;22035;51.406;16.194;2023-01-25T09:26:23;101707.33;;;25.48;19.23
35952;BME280;22035;51.406;16.194;2023-01-25T09:28:52;101705.46;;;25.52;19.20
35952;BME280;22035;51.406;16.194;2023-01-25T09:31:18;101705.32;;;25.51;19.20
35952;BME280;22035;51.406;16.194;2023-01-25T09:33:45;101704.41;;;25.53;19.16
35952;BME280;22035;51.406;16.194;2023-01-25T09:36:11;101703.45;;;25.51;19.21
35952;BME280;22035;51.406;16.194;2023-01-25T09:38:37;101700.12;;;25.46;19.24
35952;BME280;22035;51.406;16.194;2023-01-25T09:41:15;101697.20;;;25.50;19.22
35952;BME280;22035;51.406;16.194;2023-01-25T09:43:53;101694.47;;;25.51;19.22
35952;BME280;22035;51.406;16.194;2023-01-25T09:46:28;101689.68;;;25.53;19.20
35952;BME280;22035;51.406;16.194;2023-01-25T09:49:01;101690.51;;;25.51;19.22
35952;BME280;22035;51.406;16.194;2023-01-25T09:51:35;101685.79;;;25.52;19.22
35952;BME280;22035;51.406;16.194;2023-01-25T09:54:09;101680.11;;;25.54;19.16
35952;BME280;22035;51.406;16.194;2023-01-25T09:56:37;101678.80;;;25.54;19.19
35952;BME280;22035;51.406;16.194;2023-01-25T09:59:09;101674.84;;;25.57;19.17
35952;BME280;22035;51.406;16.194;2023-01-25T10:01:42;101673.18;;;25.56;19.18
35952;BME280;22035;51.406;16.194;2023-01-25T10:04:13;101669.74;;;25.54;19.20
35952;BME280;22035;51.406;16.194;2023-01-25T10:06:43;101669.85;;;25.51;19.23
35952;BME280;22035;51.406;16.194;2023-01-25T10:09:18;101669.99;;;25.55;19.20
35952;BME280;22035;51.406;16.194;2023-01-25T10:11:46;101667.96;;;25.55;19.20
35952;BME280;22035;51.406;16.194;2023-01-25T10:14:14;101668.58;;;25.51;19.23
35952;BME280;22035;51.406;16.194;2023-01-25T10:16:52;101667.74;;;25.58;19.17
35952;BME280;22035;51.406;16.194;2023-01-25T10:19:24;101667.28;;;25.57;19.18
35952;BME280;22035;51.406;16.194;2023-01-25T10:21:56;101665.92;;;25.55;19.21
35952;BME280;22035;51.406;16.194;2023-01-25T10:24:33;101666.54;;;25.54;19.22
35952;BME280;22035;51.406;16.194;2023-01-25T10:27:14;101661.69;;;25.53;19.24
35952;BME280;22035;51.406;16.194;2023-01-25T10:29:43;101659.87;;;25.58;19.18
35952;BME280;22035;51.406;16.194;2023-01-25T10:32:16;101660.24;;;25.55;19.22
35952;BME280;22035;51.406;16.194;2023-01-25T10:34:45;101660.17;;;25.54;19.22
35952;BME280;22035;51.406;16.194;2023-01-25T10:37:13;101662.56;;;25.54;19.23
35952;BME280;22035;51.406;16.194;2023-01-25T10:39:44;101658.65;;;25.55;19.21
35952;BME280;22035;51.406;16.194;2023-01-25T10:42:14;101654.09;;;25.55;19.22
35952;BME280;22035;51.406;16.194;2023-01-25T10:44:41;101649.50;;;25.56;19.20
35952;BME280;22035;51.406;16.194;2023-01-25T10:47:16;101644.42;;;25.58;19.19
35952;BME280;22035;51.406;16.194;2023-01-25T10:49:46;101637.20;;;25.53;19.24
35952;BME280;22035;51.406;16.194;2023-01-25T10:52:14;101634.67;;;25.54;19.23
35952;BME280;22035;51.406;16.194;2023-01-25T10:54:41;101634.48;;;25.57;19.21
35952;BME280;22035;51.406;16.194;2023-01-25T10:57:07;101629.49;;;25.55;19.23
35952;BME280;22035;51.406;16.194;2023-01-25T10:59:34;101626.53;;;25.57;19.21
35952;BME280;22035;51.406;16.194;2023-01-25T11:02:24;101621.88;;;25.58;19.21
35952;BME280;22035;51.406;16.194;2023-01-25T11:05:22;101613.52;;;25.55;19.24
35952;BME280;22035;51.406;16.194;2023-01-25T11:07:48;101610.45;;;25.54;19.25
35952;BME280;22035;51.406;16.194;2023-01-25T11:10:27;101606.30;;;25.54;19.25
35952;BME280;22035;51.406;16.194;2023-01-25T11:13:16;101599.11;;;25.56;19.23
35952;BME280;22035;51.406;16.194;2023-01-25T11:15:44;101597.49;;;25.54;19.25
35952;BME280;22035;51.406;16.194;2023-01-25T11:18:12;101595.50;;;25.55;19.24
35952;BME280;22035;51.406;16.194;2023-01-25T11:20:40;101587.68;;;25.54;19.25
35952;BME280;22035;51.406;16.194;2023-01-25T11:23:20;101583.08;;;25.54;19.26
35952;BME280;22035;51.406;16.194;2023-01-25T11:25:46;101575.00;;;25.57;19.23
35952;BME280;22035;51.406;16.194;2023-01-25T11:28:20;101569.57;;;25.56;19.24
35952;BME280;22035;51.406;16.194;2023-01-25T11:30:47;101570.40;;;25.54;19.25
35952;BME280;22035;51.406;16.194;2023-01-25T11:33:15;101567.77;;;25.55;19.25
35952;BME280;22035;51.406;16.194;2023-01-25T11:35:52;101557.42;;;25.56;19.25
35952;BME280;22035;51.406;16.194;2023-01-25T11:38:24;101553.52;;;25.57;19.24
35952;BME280;22035;51.406;16.194;2023-01-25T11:40:55;101550.78;;;25.55;19.25
35952;BME280;22035;51.406;16.194;2023-01-25T11:43:41;101545.96;;;25.57;19.25
35952;BME280;22035;51.406;16.194;2023-01-25T11:46:22;101541.81;;;25.54;19.27
35952;BME280;22035;51.406;16.194;2023-01-25T11:49:03;101537.77;;;25.57;19.25
35952;BME280;22035;51.406;16.194;2023-01-25T11:51:34;101536.16;;;25.58;19.24
35952;BME280;22035;51.406;16.194;2023-01-25T11:54:18;101531.48;;;25.55;19.27
35952;BME280;22035;51.406;16.194;2023-01-25T11:56:56;101529.45;;;25.53;19.29
35952;BME280;22035;51.406;16.194;2023-01-25T11:59:35;101520.41;;;25.58;19.25
35952;BME280;22035;51.406;16.194;2023-01-25T12:02:29;101511.75;;;25.56;19.26
35952;BME280;22035;51.406;16.194;2023-01-25T12:05:09;101506.86;;;25.62;19.21
35952;BME280;22035;51.406;16.194;2023-01-25T12:07:42;101498.14;;;25.58;19.24
35952;BME280;22035;51.406;16.194;2023-01-25T12:10:20;101491.33;;;25.55;19.28
35952;BME280;22035;51.406;16.194;2023-01-25T12:12:55;101485.35;;;25.61;19.22
35952;BME280;22035;51.406;16.194;2023-01-25T12:15:34;101480.55;;;25.59;19.25
35952;BME280;22035;51.406;16.194;2023-01-25T12:18:15;101477.24;;;25.58;19.26
35952;BME280;22035;51.406;16.194;2023-01-25T12:21:01;101474.49;;;25.57;19.26
35952;BME280;22035;51.406;16.194;2023-01-25T12:23:35;101469.18;;;25.60;19.24
35952;BME280;22035;51.406;16.194;2023-01-25T12:26:14;101467.80;;;25.58;19.26
35952;BME280;22035;51.406;16.194;2023-01-25T12:28:47;101467.47;;;25.57;19.27
35952;BME280;22035;51.406;16.194;2023-01-25T12:31:18;101459.65;;;25.60;19.24
35952;BME280;22035;51.406;16.194;2023-01-25T12:33:51;101455.93;;;25.61;19.23
35952;BME280;22035;51.406;16.194;2023-01-25T12:36:20;101452.81;;;25.59;19.25
35952;BME280;22035;51.406;16.194;2023-01-25T12:38:54;101452.73;;;25.58;19.26
35952;BME280;22035;51.406;16.194;2023-01-25T12:41:30;101450.82;;;25.62;19.23
35952;BME280;22035;51.406;16.194;2023-01-25T12:44:05;101442.71;;;25.60;19.25
35952;BME280;22035;51.406;16.194;2023-01-25T12:46:38;101434.51;;;25.58;19.27